Time;durP1;ratioP1;P1;durP2;ratioP2;P2;SDS_P1;SDS_P2;PMS_P1;PMS_P2;Temp;Humidity;BMP_temperature;BMP_pressure;BME280_temperature;BME280_humidity;BME280_pressure;Samples;Min_cycle;Max_cycle;Signal;HPM_P1;HPM_P2
2022/08/20 00:01:54;;;;;;;14.98;2.45;;;16.80;99.90;;;16.03;100.00;101657.09;4153508;28;20507;-77
2022/08/20 00:03:55;;;;;;;9.45;2.42;;;16.70;99.90;;;15.94;100.00;101643.94;4153754;28;20088;-77
2022/08/20 00:06:06;;;;;;;7.13;2.15;;;16.60;99.90;;;15.76;100.00;101633.50;4136066;28;20080;-77
2022/08/20 00:08:09;;;;;;;11.73;2.53;;;16.50;99.90;;;15.69;100.00;101636.97;4136406;28;20445;-77
2022/08/20 00:10:10;;;;;;;10.80;2.80;;;16.40;99.90;;;15.64;100.00;101631.34;4147218;28;20505;-77
2022/08/20 00:12:14;;;;;;;10.70;2.22;;;16.40;99.90;;;15.59;100.00;101631.81;4153587;28;20100;-77
2022/08/20 00:14:15;;;;;;;9.18;2.40;;;16.30;99.90;;;15.47;100.00;101625.22;4152601;28;20018;-77
2022/08/20 00:16:21;;;;;;;9.70;2.15;;;16.30;99.90;;;15.45;100.00;101637.78;4152022;28;20436;-77
2022/08/20 00:18:23;;;;;;;10.73;2.50;;;16.20;99.90;;;15.34;100.00;101636.31;4136333;28;20022;-77
2022/08/20 00:20:29;;;;;;;10.75;3.05;;;16.10;99.90;;;15.33;100.00;101639.94;4153403;28;20026;-77
2022/08/20 00:22:29;;;;;;;6.75;1.85;;;16.10;99.90;;;15.36;100.00;101660.88;4152625;28;20029;-77
2022/08/20 00:24:31;;;;;;;10.60;2.83;;;16.00;99.90;;;15.31;100.00;101657.06;4152231;28;20511;-77
2022/08/20 00:26:33;;;;;;;11.70;2.75;;;16.00;99.90;;;15.22;100.00;101647.41;4168593;28;20053;-77
2022/08/20 00:28:34;;;;;;;14.00;2.75;;;15.90;99.90;;;15.13;100.00;101635.94;4135762;28;20068;-77
2022/08/20 00:30:35;;;;;;;13.95;3.33;;;15.90;99.90;;;15.23;100.00;101654.41;4141588;28;20045;-77
2022/08/20 00:32:50;;;;;;;8.15;2.22;;;15.80;99.90;;;15.16;100.00;101651.56;4153364;28;20030;-77
2022/08/20 00:34:51;;;;;;;10.02;1.85;;;15.80;99.90;;;15.10;100.00;101644.25;4153321;28;20022;-77
2022/08/20 00:36:52;;;;;;;10.55;2.13;;;15.70;99.90;;;15.02;100.00;101641.56;4136175;28;20045;-77
2022/08/20 00:38:53;;;;;;;18.85;2.63;;;15.70;99.90;;;15.05;100.00;101646.56;4152134;28;20037;-77
2022/08/20 00:40:57;;;;;;;11.98;2.83;;;15.70;99.90;;;14.96;100.00;101627.09;4153185;28;20029;-77
2022/08/20 00:43:01;;;;;;;11.65;3.00;;;15.60;99.90;;;14.80;100.00;101613.78;4151916;28;20041;-77
2022/08/20 00:45:03;;;;;;;12.43;2.30;;;15.60;99.90;;;14.80;100.00;101615.59;4151645;28;20037;-77
2022/08/20 00:47:04;;;;;;;9.90;2.60;;;15.50;99.90;;;14.82;100.00;101624.22;4153333;28;20445;-77
2022/08/20 00:49:08;;;;;;;10.82;2.50;;;15.50;99.90;;;14.88;100.00;101629.72;4151996;28;20045;-77
2022/08/20 00:51:14;;;;;;;;;;;15.50;99.90;;;14.76;100.00;101625.72;4151961;28;20054;-77
2022/08/20 00:53:19;;;;;;;8.50;2.13;;;15.50;99.90;;;14.68;100.00;101611.59;4135919;28;20377;-77
2022/08/20 00:55:23;;;;;;;9.90;2.38;;;15.50;99.90;;;14.74;100.00;101617.09;4152979;28;20041;-77
2022/08/20 00:57:53;;;;;;;10.10;3.10;;;15.50;99.90;;;14.77;100.00;101605.31;4151882;28;20527;-77
2022/08/20 00:59:54;;;;;;;9.68;2.38;;;15.50;99.90;;;15.03;100.00;101642.38;4151371;28;20046;-77
2022/08/20 01:01:57;;;;;;;12.93;3.15;;;15.70;99.90;;;15.03;100.00;101632.59;4134669;28;20026;-77
2022/08/20 01:03:58;;;;;;;8.30;2.25;;;15.70;99.90;;;15.07;100.00;101623.31;4151640;28;20050;-77
2022/08/20 01:05:59;;;;;;;8.55;2.50;;;15.80;99.90;;;15.15;100.00;101617.16;4152906;28;20037;-77
2022/08/20 01:08:00;;;;;;;8.57;1.95;;;15.90;99.90;;;15.23;100.00;101636.59;4151783;28;20049;-77
2022/08/20 01:10:15;;;;;;;8.40;2.33;;;15.90;99.90;;;15.27;100.00;101629.13;4145703;28;20390;-77
2022/08/20 01:12:17;;;;;;;8.30;2.08;;;15.90;99.90;;;15.27;100.00;101623.81;4151513;28;20393;-77
2022/08/20 01:14:42;;;;;;;7.45;2.10;;;16.00;99.90;;;15.48;100.00;101643.66;4151604;28;20543;-77
2022/08/20 01:16:45;;;;;;;8.70;1.88;;;16.00;99.90;;;15.54;100.00;101643.97;4151430;28;20536;-77
2022/08/20 01:18:48;;;;;;;8.95;1.83;;;16.10;99.90;;;15.49;100.00;101629.38;4135208;28;20023;-77
2022/08/20 01:21:01;;;;;;;11.85;2.13;;;16.20;99.90;;;15.49;100.00;101617.88;4135707;28;20029;-77
2022/08/20 01:23:33;;;;;;;14.00;2.40;;;16.30;99.90;;;15.55;100.00;101627.88;4151546;28;20116;-77
2022/08/20 01:25:55;;;;;;;5.95;2.00;;;16.30;99.90;;;15.73;100.00;101657.78;4138932;28;20476;-77
2022/08/20 01:27:56;;;;;;;10.65;2.45;;;16.30;99.90;;;15.59;100.00;101642.47;4146991;28;20037;-77
2022/08/20 01:29:59;;;;;;;8.23;2.22;;;16.30;99.90;;;15.67;100.00;101649.63;4152371;28;20033;-77
2022/08/20 01:32:01;;;;;;;8.60;1.92;;;16.30;99.90;;;15.62;100.00;101636.00;4151593;28;20489;-77
2022/08/20 01:34:07;;;;;;;6.80;2.13;;;16.30;99.90;;;15.55;100.00;101635.84;4151979;28;20029;-77
2022/08/20 01:36:11;;;;;;;8.20;2.05;;;16.30;99.90;;;15.65;100.00;101660.41;4151637;28;20030;-77
2022/08/20 01:38:12;;;;;;;8.85;2.15;;;16.30;99.90;;;15.38;100.00;101626.97;4152463;28;20030;-77
2022/08/20 01:40:26;;;;;;;6.57;2.42;;;16.20;99.90;;;15.38;100.00;101631.50;4151304;28;20026;-77
2022/08/20 01:42:41;;;;;;;9.38;2.65;;;16.20;99.90;;;15.40;100.00;101654.25;4136022;28;20037;-77
2022/08/20 01:44:43;;;;;;;;;;;16.10;99.90;;;15.29;100.00;101649.25;4152725;28;20106;-77
2022/08/20 01:46:47;;;;;;;8.65;2.15;;;16.10;99.90;;;15.25;100.00;101637.28;4151045;28;19936;-77
2022/08/20 01:48:48;;;;;;;6.72;2.08;;;16.10;99.90;;;15.31;100.00;101643.78;4151355;28;20037;-77
2022/08/20 01:51:26;;;;;;;10.82;2.10;;;16.00;99.90;;;15.42;100.00;101662.03;4152059;28;20497;-77
2022/08/20 01:53:37;;;;;;;8.65;2.58;;;16.00;99.90;;;15.41;100.00;101663.88;4155062;28;20073;-77
2022/08/20 01:55:38;;;;;;;5.78;1.92;;;16.00;99.90;;;15.27;100.00;101635.28;4152630;28;20030;-78
2022/08/20 01:57:39;;;;;;;7.57;2.70;;;16.10;99.90;;;15.36;100.00;101654.72;4151044;28;20490;-77
2022/08/20 01:59:41;;;;;;;4.47;2.15;;;16.10;99.90;;;15.44;100.00;101647.59;4151050;28;20444;-77
2022/08/20 02:01:42;;;;;;;6.32;1.92;;;16.10;99.90;;;15.35;100.00;101629.97;4134636;28;20410;-77
2022/08/20 02:03:43;;;;;;;8.25;2.10;;;16.10;99.90;;;15.44;100.00;101654.75;4152253;28;20086;-77
2022/08/20 02:06:26;;;;;;;;;;;;;;;;;;;;;
2022/08/20 02:11:43;;;;;;;;;;;;;;;;;;;;;
2022/08/20 02:14:22;;;;;;;;;;;;;;;;;;;;;
2022/08/20 02:20:09;;;;;;;12.23;2.35;;;16.10;99.90;;;15.12;100.00;101615.66;4148134;28;20038;-77
2022/08/20 02:23:21;;;;;;;;;;;;;;;;;;;;;
2022/08/20 02:25:56;;;;;;;;;;;;;;;;;;;;;
2022/08/20 02:28:47;;;;;;;;;;;;;;;;;;;;;
2022/08/20 02:31:27;;;;;;;;;;;;;;;;;;;;;
2022/08/20 02:34:07;;;;;;;;;;;;;;;;;;;;;
2022/08/20 02:36:52;;;;;;;;;;;;;;;;;;;;;
2022/08/20 02:39:07;;;;;;;;;;;15.80;99.90;;;14.89;100.00;101620.78;4155530;28;20034;-77
2022/08/20 02:41:30;;;;;;;;;;;;;;;;;;;;;
2022/08/20 02:44:29;;;;;;;;;;;;;;;;;;;;;
2022/08/20 02:47:45;;;;;;;11.48;3.00;;;15.90;99.90;;;15.28;100.00;101636.13;4141909;28;20042;-77
2022/08/20 02:50:12;;;;;;;;;;;;;;;;;;;;;
2022/08/20 02:52:49;;;;;;;;;;;;;;;;;;;;;
2022/08/20 02:55:34;;;;;;;;;;;;;;;;;;;;;
2022/08/20 02:58:15;;;;;;;12.52;2.75;;;16.00;99.90;;;15.35;100.00;101640.59;4152313;28;20034;-77
2022/08/20 03:07:01;;;;;;;;;;;;;;;;;;;;;
2022/08/20 03:09:49;;;;;;;7.93;2.00;;;16.10;99.90;;;15.33;100.00;101610.69;4154780;28;20033;-77
2022/08/20 03:12:25;;;;;;;;;;;;;;;;;;;;;
2022/08/20 03:15:07;;;;;;;;;;;;;;;;;;;;;
2022/08/20 03:20:18;;;;;;;;;;;;;;;;;;;;;
2022/08/20 03:22:55;;;;;;;;;;;;;;;;;;;;;
2022/08/20 03:25:25;;;;;;;13.07;3.00;;;16.00;99.90;;;14.99;100.00;101596.72;4152990;28;20041;-77
2022/08/20 03:28:19;;;;;;;;;;;;;;;;;;;;;
2022/08/20 03:30:54;;;;;;;;;;;;;;;;;;;;;
2022/08/20 03:33:19;;;;;;;;;;;;;;;;;;;;;
2022/08/20 03:36:13;;;;;;;;;;;;;;;;;;;;;
2022/08/20 03:41:35;;;;;;;6.30;1.85;;;15.40;99.90;;;14.50;100.00;101618.81;4156318;28;20038;-77
2022/08/20 03:47:30;;;;;;;;;;;;;;;;;;;;;
2022/08/20 03:50:18;;;;;;;;;;;;;;;;;;;;;
2022/08/20 03:53:01;;;;;;;;;;;;;;;;;;;;;
2022/08/20 03:56:03;;;;;;;;;;;;;;;;;;;;;
2022/08/20 04:01:17;;;;;;;;;;;;;;;;;;;;;
2022/08/20 04:04:12;;;;;;;;;;;;;;;;;;;;;
2022/08/20 04:06:06;;;;;;;6.78;2.42;;;15.30;99.90;;;14.34;100.00;101587.72;4150811;28;20064;-77
2022/08/20 04:08:54;;;;;;;;;;;;;;;;;;;;;
2022/08/20 04:11:53;;;;;;;;;;;;;;;;;;;;;
2022/08/20 04:20:12;;;;;;;14.77;3.53;;;15.20;99.90;;;14.30;100.00;101612.91;4156317;28;20493;-77
2022/08/20 04:23:12;;;;;;;;;;;;;;;;;;;;;
2022/08/20 04:25:42;;;;;;;8.45;2.40;;;15.20;99.90;;;14.25;100.00;101610.72;4153532;28;20030;-77
2022/08/20 04:28:24;;;;;;;;;;;;;;;;;;;;;
2022/08/20 04:30:44;;;;;;;;;;;;;;;;;;;;;
2022/08/20 04:32:45;;;;;;;11.40;3.38;;;15.00;99.90;;;14.04;100.00;101612.91;4152703;28;20034;-77
2022/08/20 04:34:46;;;;;;;7.68;3.33;;;14.90;99.90;;;13.95;100.00;101608.56;4151584;28;20052;-77
2022/08/20 04:36:47;;;;;;;11.07;3.38;;;14.80;99.90;;;13.88;100.00;101607.53;4159328;28;20057;-77
2022/08/20 04:38:48;;;;;;;11.18;3.08;;;14.70;99.90;;;13.82;100.00;101606.34;4152762;28;20033;-77
2022/08/20 04:40:52;;;;;;;11.27;2.70;;;14.70;99.90;;;13.82;100.00;101618.78;4168094;28;20029;-77
2022/08/20 04:42:53;;;;;;;7.78;3.13;;;14.60;99.90;;;13.83;100.00;101623.91;4151603;28;20021;-77
2022/08/20 04:44:54;;;;;;;11.38;3.20;;;14.60;99.90;;;13.69;100.00;101608.56;4143347;28;20468;-77
2022/08/20 04:46:56;;;;;;;11.30;3.00;;;14.50;99.90;;;13.80;100.00;101642.78;4152882;28;20026;-77
2022/08/20 04:48:59;;;;;;;6.40;2.55;;;14.40;99.90;;;13.75;100.00;101638.94;4135485;28;20621;-77
2022/08/20 04:51:01;;;;;;;7.55;2.78;;;14.40;99.90;;;13.67;100.00;101631.75;4151193;28;20036;-77
2022/08/20 04:53:06;;;;;;;10.30;3.47;;;14.40;99.90;;;13.66;100.00;101642.50;4135349;28;20113;-77
2022/08/20 04:55:08;;;;;;;10.55;2.85;;;14.30;99.90;;;13.59;100.00;101639.63;4151466;28;20112;-77
2022/08/20 04:57:09;;;;;;;6.78;2.78;;;14.30;99.90;;;13.47;100.00;101630.25;4152246;28;20021;-77
2022/08/20 04:59:10;;;;;;;10.35;2.72;;;14.20;99.90;;;13.40;100.00;101618.63;4135143;28;20031;-77
2022/08/20 05:01:11;;;;;;;10.75;3.60;;;14.20;99.90;;;13.41;100.00;101630.84;4151525;28;20101;-77
2022/08/20 05:03:12;;;;;;;9.88;2.63;;;14.10;99.90;;;13.37;100.00;101639.28;4151296;28;20030;-77
2022/08/20 05:05:13;;;;;;;11.15;2.70;;;14.10;99.90;;;13.22;100.00;101609.84;4151416;28;20152;-78
2022/08/20 05:07:17;;;;;;;7.38;2.35;;;14.00;99.90;;;13.32;100.00;101646.88;4150977;28;20050;-78
2022/08/20 05:09:18;;;;;;;10.95;2.90;;;14.00;99.90;;;13.12;100.00;101619.66;4152376;28;20018;-77
2022/08/20 05:11:20;;;;;;;7.85;2.70;;;13.90;99.90;;;13.06;100.00;101613.13;4152271;28;20030;-77
2022/08/20 05:13:21;;;;;;;8.32;2.60;;;13.90;99.90;;;13.08;100.00;101619.13;4151368;28;20026;-78
2022/08/20 05:15:24;;;;;;;7.90;2.80;;;13.90;99.90;;;13.10;100.00;101622.47;4134809;28;20029;-77
2022/08/20 05:17:25;;;;;;;7.97;3.38;;;13.90;99.90;;;13.12;100.00;101625.81;4152760;28;20034;-78
2022/08/20 05:19:27;;;;;;;10.45;2.50;;;13.90;99.90;;;13.25;100.00;101636.88;4151518;28;20465;-78
2022/08/20 05:21:28;;;;;;;7.30;2.60;;;14.00;99.90;;;13.32;100.00;101632.59;4151452;28;20087;-77
2022/08/20 05:23:29;;;;;;;9.57;2.75;;;14.10;99.90;;;13.36;100.00;101638.44;4151279;28;20117;-77
2022/08/20 05:25:30;;;;;;;10.07;2.55;;;14.10;99.90;;;13.40;100.00;101637.16;4134891;28;20125;-77
2022/08/20 05:27:32;;;;;;;15.23;2.72;;;14.10;99.90;;;13.45;100.00;101648.13;4152130;28;20034;-77
2022/08/20 05:29:33;;;;;;;10.07;3.10;;;14.10;99.90;;;13.52;100.00;101649.19;4135137;28;20567;-77
2022/08/20 05:31:34;;;;;;;12.00;3.40;;;14.10;99.90;;;13.55;100.00;101653.34;4151813;28;20057;-77
2022/08/20 05:33:38;;;;;;;12.65;3.17;;;14.20;99.90;;;13.56;100.00;101657.69;4151515;28;20529;-78
2022/08/20 05:35:40;;;;;;;11.23;3.17;;;14.20;99.90;;;13.54;100.00;101660.47;4167733;28;20017;-77
2022/08/20 05:37:41;;;;;;;11.48;2.58;;;14.20;99.90;;;13.54;100.00;101655.16;4134878;28;20269;-78
2022/08/20 05:39:43;;;;;;;12.23;3.63;;;14.20;99.90;;;13.55;100.00;101656.00;4151115;28;20037;-77
2022/08/20 05:41:43;;;;;;;9.00;3.40;;;14.20;99.90;;;13.58;100.00;101647.75;4152715;28;20098;-77
2022/08/20 05:43:44;;;;;;;11.23;4.22;;;14.30;99.90;;;13.72;100.00;101655.97;4151179;28;20050;-77
2022/08/20 05:45:51;;;;;;;10.05;3.15;;;14.40;99.90;;;13.81;100.00;101668.31;4134807;28;20045;-77
2022/08/20 05:47:52;;;;;;;16.02;3.78;;;14.40;99.90;;;13.96;100.00;101675.72;4150934;28;20392;-77
2022/08/20 05:49:53;;;;;;;5.80;2.97;;;14.50;99.90;;;13.91;100.00;101654.97;4151163;28;20033;-77
2022/08/20 05:51:54;;;;;;;10.45;3.65;;;14.60;99.90;;;13.96;100.00;101651.84;4134539;28;20076;-77
2022/08/20 05:53:56;;;;;;;9.70;2.90;;;14.60;99.90;;;14.07;100.00;101664.84;4152632;28;20037;-77
2022/08/20 05:56:00;;;;;;;9.88;3.13;;;14.70;99.90;;;13.92;100.00;101646.00;4150982;28;20026;-77
2022/08/20 05:58:05;;;;;;;5.82;2.50;;;14.70;99.90;;;14.00;100.00;101664.66;4151239;28;20034;-78
2022/08/20 06:00:10;;;;;;;9.27;3.38;;;14.70;99.90;;;13.96;100.00;101655.31;4150867;28;20026;-78
2022/08/20 06:04:31;;;;;;;11.18;3.00;;;14.70;99.90;;;14.09;100.00;101676.97;4151412;28;20037;-77
2022/08/20 06:06:33;;;;;;;13.93;2.88;;;14.80;99.90;;;14.10;100.00;101675.97;4151305;28;20034;-78
2022/08/20 06:08:34;;;;;;;13.48;3.47;;;14.70;99.90;;;14.01;100.00;101660.19;4151058;28;20037;-78
2022/08/20 06:10:38;;;;;;;14.70;4.00;;;14.70;99.90;;;14.02;100.00;101648.56;4150977;28;20037;-77
2022/08/20 06:12:39;;;;;;;14.73;4.55;;;14.80;99.90;;;14.08;100.00;101664.69;4152367;28;20033;-77
2022/08/20 06:14:40;;;;;;;13.00;3.60;;;14.80;99.90;;;14.16;100.00;101664.72;4150980;28;20029;-77
2022/08/20 06:16:42;;;;;;;14.98;3.90;;;14.80;99.90;;;14.21;100.00;101662.47;4150702;28;20026;-77
2022/08/20 06:18:43;;;;;;;11.00;3.40;;;14.90;99.90;;;14.27;100.00;101664.50;4134728;28;20023;-77
2022/08/20 06:20:44;;;;;;;16.38;3.92;;;14.90;99.90;;;14.37;100.00;101670.53;4134844;28;20057;-78
2022/08/20 06:22:45;;;;;;;11.60;3.83;;;15.00;99.90;;;14.42;100.00;101664.75;4151123;28;20080;-78
2022/08/20 06:24:46;;;;;;;11.05;4.28;;;15.10;99.90;;;14.59;100.00;101682.44;4151974;28;20054;-77
2022/08/20 06:26:53;;;;;;;15.60;4.22;;;15.20;99.90;;;14.64;100.00;101680.13;4150865;28;20026;-77
2022/08/20 06:28:54;;;;;;;11.68;3.75;;;15.20;99.90;;;14.54;100.00;101658.19;4151357;28;20033;-77
2022/08/20 06:30:55;;;;;;;17.77;5.20;;;15.30;99.90;;;14.58;100.00;101662.16;4151743;28;20033;-77
2022/08/20 06:32:56;;;;;;;15.88;3.90;;;15.30;99.90;;;14.65;100.00;101678.28;4151292;28;20034;-77
2022/08/20 06:34:57;;;;;;;8.77;3.28;;;15.30;99.90;;;14.55;100.00;101656.34;4151858;28;20420;-77
2022/08/20 06:36:58;;;;;;;12.90;4.28;;;15.30;99.90;;;14.65;100.00;101671.16;4152131;28;20068;-77
2022/08/20 06:38:59;;;;;;;10.18;3.53;;;15.30;99.90;;;14.60;100.00;101651.41;4150848;28;20512;-77
2022/08/20 06:41:01;;;;;;;7.90;3.70;;;15.30;99.90;;;14.57;100.00;101652.56;4152053;28;20030;-77
2022/08/20 06:43:02;;;;;;;13.20;4.45;;;15.30;99.90;;;14.57;100.00;101641.09;4151791;28;20026;-77
2022/08/20 06:45:04;;;;;;;12.20;3.97;;;15.40;99.90;;;14.62;100.00;101644.09;4150648;28;20084;-78
2022/08/20 06:47:06;;;;;;;13.40;3.50;;;15.40;99.90;;;14.75;100.00;101671.03;4150807;28;20029;-77
2022/08/20 06:49:07;;;;;;;12.73;3.17;;;15.40;99.90;;;14.71;100.00;101654.59;4151978;28;20089;-77
2022/08/20 06:51:09;;;;;;;14.95;3.75;;;15.40;99.90;;;14.79;100.00;101659.94;4150536;28;20122;-77
2022/08/20 06:53:14;;;;;;;8.52;3.38;;;15.50;99.90;;;14.82;100.00;101662.25;4134623;28;20106;-77
2022/08/20 06:55:16;;;;;;;18.00;3.95;;;15.50;99.90;;;14.79;100.00;101653.78;4150743;28;20029;-77
2022/08/20 06:57:17;;;;;;;13.18;4.07;;;15.50;99.90;;;14.77;100.00;101635.34;4152022;28;20481;-77
2022/08/20 06:59:17;;;;;;;15.70;3.92;;;15.60;99.90;;;14.87;100.00;101644.00;4153153;28;20061;-77
2022/08/20 07:01:19;;;;;;;10.75;3.55;;;15.60;99.90;;;14.89;100.00;101647.34;4154591;28;20049;-77
2022/08/20 07:03:20;;;;;;;13.65;3.30;;;15.70;99.90;;;14.94;100.00;101645.03;4153606;28;20026;-77
2022/08/20 07:05:21;;;;;;;13.20;3.08;;;15.70;99.90;;;14.97;100.00;101638.56;4137390;28;20034;-78
2022/08/20 07:07:22;;;;;;;10.68;3.13;;;15.80;99.90;;;15.08;100.00;101646.25;4154511;28;20022;-78
2022/08/20 07:09:27;;;;;;;10.80;3.47;;;15.80;99.90;;;15.28;100.00;101662.72;4154780;28;20037;-77
2022/08/20 07:11:27;;;;;;;10.07;2.75;;;15.90;99.90;;;15.29;100.00;101651.91;4154792;28;20358;-77
2022/08/20 07:13:29;;;;;;;11.90;3.65;;;16.00;99.90;;;15.42;100.00;101665.53;4153580;28;20045;-77
2022/08/20 07:15:29;;;;;;;9.07;2.83;;;16.10;99.90;;;15.34;100.00;101651.41;4136640;28;20024;-77
2022/08/20 07:17:30;;;;;;;11.27;2.53;;;16.20;99.90;;;15.45;100.00;101646.59;4153479;28;20030;-77
2022/08/20 07:19:32;;;;;;;9.10;3.03;;;16.20;99.90;;;15.57;100.00;101646.28;4153382;28;20026;-77
2022/08/20 07:21:33;;;;;;;8.10;2.53;;;16.30;99.90;;;15.64;100.00;101655.28;4154480;28;20053;-77
2022/08/20 07:23:35;;;;;;;12.45;3.70;;;16.40;99.90;;;15.65;100.00;101657.75;4120706;28;20061;-78
2022/08/20 07:25:37;;;;;;;7.07;2.67;;;16.40;99.90;;;15.77;100.00;101668.91;4153266;28;20113;-78
2022/08/20 07:27:38;;;;;;;9.15;2.80;;;16.40;99.90;;;15.76;100.00;101656.59;4136960;28;20095;-77
2022/08/20 07:34:18;;;;;;;8.48;2.40;;;16.60;99.90;;;15.86;100.00;101663.41;4153240;28;20049;-77
2022/08/20 07:36:19;;;;;;;8.18;2.25;;;16.60;99.90;;;15.99;100.00;101682.38;4136733;28;20022;-78
2022/08/20 07:38:24;;;;;;;9.50;2.80;;;16.70;99.90;;;16.04;100.00;101676.53;4136663;28;20419;-77
2022/08/20 07:40:34;;;;;;;10.82;2.65;;;16.70;99.90;;;16.02;100.00;101667.88;4152910;28;20141;-78
2022/08/20 07:42:38;;;;;;;9.48;2.85;;;16.80;99.90;;;16.01;100.00;101655.56;4153119;28;20533;-77
2022/08/20 07:44:39;;;;;;;8.95;3.50;;;16.80;99.90;;;16.01;100.00;101659.06;4153689;28;20036;-78
2022/08/20 07:46:39;;;;;;;11.68;1.75;;;16.90;99.90;;;16.08;100.00;101661.06;4154194;28;20134;-78
2022/08/20 07:48:48;;;;;;;6.72;2.33;;;16.90;99.90;;;16.19;100.00;101669.50;4154017;28;20026;-77
2022/08/20 07:50:49;;;;;;;17.55;3.25;;;16.90;99.90;;;16.39;100.00;101691.28;4152964;28;20066;-78
2022/08/20 07:52:51;;;;;;;13.40;2.47;;;17.00;99.90;;;16.44;100.00;101689.75;4153794;28;20485;-78
2022/08/20 07:54:52;;;;;;;10.73;2.55;;;17.10;99.90;;;16.37;100.00;101667.47;4152979;28;20026;-77
2022/08/20 07:56:54;;;;;;;10.27;2.67;;;17.10;99.90;;;16.49;100.00;101682.06;4136640;28;20045;-77
2022/08/20 07:58:57;;;;;;;12.77;2.65;;;17.20;99.90;;;16.50;100.00;101678.41;4152475;28;20060;-77
2022/08/20 08:00:58;;;;;;;15.85;3.45;;;17.30;99.90;;;16.56;100.00;101676.94;4153476;28;20068;-78
2022/08/20 08:02:59;;;;;;;8.57;2.25;;;17.30;99.90;;;16.75;100.00;101691.69;4153889;28;20026;-78
2022/08/20 08:05:01;;;;;;;14.57;3.33;;;17.40;99.90;;;16.65;100.00;101667.06;4152605;28;20040;-78
2022/08/20 08:07:02;;;;;;;11.63;2.20;;;17.40;99.90;;;16.73;100.00;101661.69;4153920;28;20037;-78
2022/08/20 08:09:08;;;;;;;11.68;2.92;;;17.50;99.90;;;16.81;100.00;101675.84;4135957;28;20026;-78
2022/08/20 08:11:10;;;;;;;9.95;3.17;;;17.60;99.90;;;16.90;100.00;101677.47;4168791;28;20037;-78
2022/08/20 08:13:12;;;;;;;18.02;2.88;;;17.60;99.90;;;16.89;100.00;101665.13;4152444;28;20093;-78
2022/08/20 08:15:21;;;;;;;11.30;2.50;;;17.70;99.90;;;17.08;100.00;101686.00;4168393;28;20048;-77
2022/08/20 08:17:22;;;;;;;10.98;2.90;;;17.70;99.90;;;17.04;100.00;101668.72;4153569;28;20060;-77
2022/08/20 08:19:27;;;;;;;12.38;2.67;;;17.80;99.90;;;17.14;100.00;101679.97;4152428;28;20029;-77
2022/08/20 08:21:29;;;;;;;15.73;3.03;;;17.90;99.90;;;17.29;100.00;101697.91;4152392;28;20038;-78
2022/08/20 08:23:31;;;;;;;12.07;3.47;;;17.90;99.90;;;17.22;100.00;101673.75;4152379;28;20056;-78
2022/08/20 08:25:32;;;;;;;7.85;2.25;;;18.00;99.90;;;17.42;100.00;101696.28;4152459;28;20122;-78
2022/08/20 08:27:34;;;;;;;9.90;2.45;;;18.10;99.90;;;17.30;100.00;101670.19;4153568;28;20026;-78
2022/08/20 08:29:36;;;;;;;11.38;2.83;;;18.10;99.90;;;17.33;100.00;101669.84;4153452;28;20089;-78
2022/08/20 08:31:37;;;;;;;14.50;2.63;;;18.20;99.90;;;17.34;100.00;101669.69;4151985;28;20028;-78
2022/08/20 08:33:39;;;;;;;11.65;3.42;;;18.20;99.90;;;17.42;100.00;101680.28;4152352;28;20579;-78
2022/08/20 08:35:44;;;;;;;9.32;2.75;;;18.20;99.90;;;17.46;100.00;101673.59;4153308;28;20516;-78
2022/08/20 08:37:46;;;;;;;10.48;3.00;;;18.30;99.90;;;17.60;98.75;101699.53;4153496;28;20036;-78
2022/08/20 08:39:47;;;;;;;10.07;2.60;;;18.30;99.90;;;17.56;98.23;101673.41;4168390;28;20014;-78
2022/08/20 08:41:50;;;;;;;11.77;2.58;;;18.40;99.90;;;17.70;97.66;101688.63;4153574;28;20037;-78
2022/08/20 08:43:56;;;;;;;9.50;1.75;;;18.40;99.90;;;17.70;98.96;101683.28;4151912;28;20026;-78
2022/08/20 08:46:10;;;;;;;9.23;2.70;;;18.50;99.90;;;17.75;99.09;101674.72;4151644;28;20038;-78
2022/08/20 08:48:18;;;;;;;8.60;2.30;;;18.50;99.90;;;17.80;98.08;101677.69;4153188;28;20034;-78
2022/08/20 08:50:29;;;;;;;14.32;3.35;;;18.60;99.90;;;17.94;97.22;101691.06;4152110;28;20038;-78
2022/08/20 08:52:34;;;;;;;8.07;1.85;;;18.70;99.90;;;18.08;97.20;101692.09;4146321;28;20037;-78
2022/08/20 08:54:38;;;;;;;7.25;2.15;;;18.80;99.90;;;18.20;97.08;101699.50;4151568;28;20060;-78
2022/08/20 08:56:39;;;;;;;;;;;18.80;99.90;;;18.06;97.43;101668.28;4152803;28;20057;-79
2022/08/20 08:58:42;;;;;;;10.20;2.92;;;18.90;99.90;;;18.11;97.55;101668.53;4150987;28;19910;-78
2022/08/20 09:00:45;;;;;;;9.10;2.45;;;18.90;99.90;;;18.36;95.95;101695.84;4152001;28;20029;-78
2022/08/20 09:03:14;;;;;;;9.25;1.98;;;19.00;99.90;;;18.39;92.41;101676.78;4152391;28;20072;-78
2022/08/20 09:05:19;;;;;;;9.23;2.22;;;19.10;99.90;;;18.51;91.73;101675.31;4146471;28;20021;-78
2022/08/20 09:07:23;;;;;;;8.90;2.33;;;19.10;99.90;;;18.81;91.85;101694.00;4150824;28;20505;-77
2022/08/20 09:09:28;;;;;;;;;;;19.20;99.90;;;18.68;89.80;101665.25;4152592;28;20085;-78
2022/08/20 09:11:29;;;;;;;7.13;1.60;;;19.40;99.90;;;18.94;88.99;101691.47;4135185;28;20344;-77
2022/08/20 09:13:31;;;;;;;12.82;2.50;;;19.50;99.90;;;18.92;86.49;101698.84;4151185;28;20032;-78
2022/08/20 09:15:33;;;;;;;12.73;2.25;;;19.50;99.90;;;18.95;86.31;101682.44;4150252;28;20011;-78
2022/08/20 09:17:34;;;;;;;7.18;1.90;;;19.60;99.90;;;18.99;85.11;101665.84;4150850;28;20053;-78
2022/08/20 09:19:35;;;;;;;7.03;2.17;;;19.60;99.90;;;19.04;84.79;101667.94;4152020;28;20049;-78
2022/08/20 09:21:36;;;;;;;10.05;2.10;;;19.70;99.90;;;19.23;85.26;101680.72;4150271;28;20026;-78
2022/08/20 09:23:37;;;;;;;8.90;1.73;;;19.80;99.90;;;19.37;84.72;101670.97;4152072;28;20033;-78
2022/08/20 09:25:37;;;;;;;8.73;1.20;;;19.90;99.90;;;19.48;85.01;101681.19;4150695;28;20036;-78
2022/08/20 09:27:39;;;;;;;5.88;1.80;;;20.00;99.90;;;19.46;84.04;101670.69;4143492;28;20052;-78
2022/08/20 09:29:40;;;;;;;7.07;1.48;;;20.10;99.90;;;19.63;83.76;101665.88;4151047;28;20026;-78
2022/08/20 09:31:41;;;;;;;8.52;2.20;;;20.20;99.90;;;19.70;82.44;101681.00;4152238;28;20034;-78
2022/08/20 09:33:42;;;;;;;10.05;1.73;;;20.20;99.90;;;19.82;81.96;101674.09;4151360;28;20025;-78
2022/08/20 09:35:45;;;;;;;8.63;2.03;;;20.30;99.90;;;19.88;80.52;101670.66;4152444;28;20044;-78
2022/08/20 09:37:46;;;;;;;9.18;1.83;;;20.40;99.90;;;19.91;80.30;101682.81;4152371;28;20098;-78
2022/08/20 09:39:48;;;;;;;8.27;2.47;;;20.50;99.90;;;20.04;80.23;101682.91;4151182;28;20045;-78
2022/08/20 09:41:49;;;;;;;14.00;3.28;;;20.60;99.90;;;20.13;79.69;101676.38;4167798;28;20116;-79
2022/08/20 09:43:50;;;;;;;7.05;1.52;;;20.70;99.90;;;20.21;78.75;101686.13;4152412;28;20030;-79
2022/08/20 09:45:51;;;;;;;9.73;2.00;;;20.70;99.90;;;20.18;79.29;101681.16;4152341;28;20030;-79
2022/08/20 09:47:51;;;;;;;6.20;1.70;;;20.80;99.90;;;20.24;80.63;101681.22;4152188;28;20120;-79
2022/08/20 09:49:53;;;;;;;6.90;1.45;;;20.80;99.90;;;20.20;79.28;101677.25;4135114;28;20554;-78
2022/08/20 09:51:54;;;;;;;8.50;2.05;;;20.80;99.90;;;20.37;80.69;101688.50;4152755;28;20137;-78
2022/08/20 09:53:55;;;;;;;7.65;1.48;;;20.90;99.90;;;20.45;80.56;101677.66;4151122;28;20033;-79
2022/08/20 09:55:58;;;;;;;10.00;2.08;;;20.90;99.90;;;20.67;79.54;101686.44;4152151;28;20034;-79
2022/08/20 09:58:19;;;;;;;8.07;1.70;;;21.00;99.90;;;20.72;79.36;101681.31;4151091;28;20492;-79
2022/08/20 10:00:20;;;;;;;14.10;2.83;;;21.20;99.90;;;20.69;77.88;101671.81;4151229;28;20037;-79
2022/08/20 10:02:21;;;;;;;7.15;1.73;;;21.30;99.90;;;20.80;76.81;101663.19;4152199;28;20068;-79
2022/08/20 10:04:22;;;;;;;6.97;1.75;;;21.40;99.90;;;20.94;74.25;101670.22;4151250;28;20030;-78
2022/08/20 10:06:23;;;;;;;10.65;2.20;;;21.50;99.90;;;21.01;75.61;101672.13;4151153;28;20037;-78
2022/08/20 10:08:25;;;;;;;9.57;2.45;;;21.60;99.90;;;21.17;75.56;101678.00;4151092;28;20033;-78
2022/08/20 10:10:26;;;;;;;6.68;1.42;;;21.60;99.90;;;21.15;75.17;101671.16;4151186;28;20130;-78